createdAt,value
2022-08-13T00:01:24.839Z,10.20
2022-08-13T00:04:00.024Z,10.67
2022-08-13T00:06:53.561Z,11.63
2022-08-13T00:09:24.486Z,10.60
2022-08-13T00:12:19.688Z,10.50
2022-08-13T00:14:51.353Z,9.43
2022-08-13T00:17:21.205Z,11.07
2022-08-13T00:20:06.640Z,11.43
2022-08-13T00:22:36.458Z,10.40
2022-08-13T00:25:09.542Z,10.97
2022-08-13T00:28:01.058Z,11.63
2022-08-13T00:30:32.759Z,10.73
2022-08-13T00:33:03.962Z,10.83
2022-08-13T00:35:40.247Z,11.40
2022-08-13T00:38:14.291Z,12.00
2022-08-13T00:40:56.247Z,10.13
2022-08-13T00:43:25.902Z,10.70
2022-08-13T00:45:55.387Z,11.13
2022-08-13T00:48:46.317Z,10.70
2022-08-13T00:51:42.503Z,10.97
2022-08-13T00:54:14.127Z,12.27
2022-08-13T00:56:43.398Z,10.10
2022-08-13T00:59:14.475Z,10.40
2022-08-13T01:01:48.197Z,10.17
2022-08-13T01:04:26.952Z,11.33
2022-08-13T01:06:57.405Z,10.43
2022-08-13T01:10:18.465Z,10.67
2022-08-13T01:12:21.477Z,10.80
2022-08-13T01:14:56.449Z,10.63
2022-08-13T01:17:30.014Z,11.10
2022-08-13T01:20:32.628Z,9.93
2022-08-13T01:23:05.692Z,9.63
2022-08-13T01:25:52.726Z,9.73
2022-08-13T01:28:24.122Z,10.50
2022-08-13T01:30:53.313Z,10.43
2022-08-13T01:33:22.087Z,10.50
2022-08-13T01:35:52.288Z,10.47
2022-08-13T01:38:23.063Z,9.90
2022-08-13T01:40:57.027Z,9.83
2022-08-13T01:43:26.568Z,10.33
2022-08-13T01:45:58.197Z,10.23
2022-08-13T01:48:48.149Z,10.50
2022-08-13T01:51:29.636Z,10.50
2022-08-13T01:54:03.049Z,11.47
2022-08-13T01:56:51.786Z,10.57
2022-08-13T01:59:19.835Z,11.10
2022-08-13T02:01:48.757Z,11.23
2022-08-13T02:04:24.659Z,11.70
2022-08-13T02:06:54.711Z,11.07
2022-08-13T02:10:00.548Z,12.20
2022-08-13T02:12:33.042Z,10.93
2022-08-13T02:15:07.021Z,11.20
2022-08-13T02:18:00.964Z,12.37
2022-08-13T02:20:32.556Z,10.43
2022-08-13T02:23:01.300Z,13.67
2022-08-13T02:25:32.258Z,11.30
2022-08-13T02:28:01.140Z,11.53
2022-08-13T02:30:32.143Z,11.63
2022-08-13T02:33:01.642Z,12.73
2022-08-13T02:35:38.699Z,12.03
2022-08-13T02:38:25.211Z,11.63
2022-08-13T02:41:18.150Z,11.80
2022-08-13T02:43:54.793Z,10.67
2022-08-13T02:46:28.584Z,12.63
2022-08-13T02:48:57.924Z,11.43
2022-08-13T02:52:02.533Z,11.27
2022-08-13T02:54:14.869Z,11.43
2022-08-13T02:56:44.330Z,12.53
2022-08-13T02:59:26.415Z,11.93
2022-08-13T03:02:02.091Z,13.90
2022-08-13T03:04:33.680Z,12.90
2022-08-13T03:07:02.574Z,11.60
2022-08-13T03:09:31.966Z,12.57
2022-08-13T03:12:10.392Z,13.73
2022-08-13T03:14:39.871Z,13.33
2022-08-13T03:17:22.260Z,13.07
2022-08-13T03:19:58.494Z,13.10
2022-08-13T03:22:32.389Z,14.27
2022-08-13T03:25:01.521Z,14.27
2022-08-13T03:27:32.178Z,14.93
2022-08-13T03:30:07.127Z,15.80
2022-08-13T03:32:40.565Z,15.27
2022-08-13T03:35:14.783Z,17.30
2022-08-13T03:37:46.032Z,16.20
2022-08-13T03:40:17.913Z,18.00
2022-08-13T03:42:52.209Z,18.67
2022-08-13T03:45:26.471Z,18.50
2022-08-13T03:47:56.183Z,17.40
2022-08-13T03:50:24.551Z,17.70
2022-08-13T03:52:53.233Z,17.80
2022-08-13T03:55:24.086Z,20.90
2022-08-13T03:58:03.502Z,18.57
2022-08-13T04:00:42.832Z,17.07
2022-08-13T04:03:21.322Z,17.77
2022-08-13T04:05:56.394Z,18.73
2022-08-13T04:08:28.100Z,16.43
2022-08-13T04:10:57.440Z,17.63
2022-08-13T04:14:05.281Z,16.27
2022-08-13T04:16:21.891Z,16.00
2022-08-13T04:19:00.106Z,16.20
2022-08-13T04:21:32.895Z,16.20
2022-08-13T04:24:03.292Z,16.60
2022-08-13T04:26:32.973Z,16.13
2022-08-13T04:29:07.182Z,15.83
2022-08-13T04:31:47.324Z,17.87
2022-08-13T04:34:33.953Z,16.80
2022-08-13T04:37:21.287Z,16.63
2022-08-13T04:40:08.823Z,17.20
2022-08-13T04:42:50.523Z,15.23
2022-08-13T04:45:23.649Z,17.50
2022-08-13T04:47:54.455Z,19.87
2022-08-13T04:50:27.839Z,20.43
2022-08-13T04:52:56.727Z,16.57
2022-08-13T04:55:26.116Z,16.63
2022-08-13T04:58:05.145Z,16.37
2022-08-13T05:00:36.474Z,18.40
2022-08-13T05:03:12.767Z,19.60
2022-08-13T05:05:43.079Z,18.50
2022-08-13T05:08:15.269Z,19.67
2022-08-13T05:10:45.917Z,18.20
2022-08-13T05:13:27.111Z,21.03
2022-08-13T05:16:01.878Z,20.33
2022-08-13T05:18:32.944Z,19.70
2022-08-13T05:21:05.677Z,20.33
2022-08-13T05:26:09.068Z,20.50
2022-08-13T05:26:33.485Z,22.30
2022-08-13T05:31:54.771Z,21.33
2022-08-13T05:34:26.335Z,22.97
2022-08-13T05:38:09.827Z,23.70
2022-08-13T05:39:47.906Z,27.17
2022-08-13T05:42:26.613Z,22.43
2022-08-13T05:44:58.414Z,29.03
2022-08-13T05:47:38.580Z,27.60
2022-08-13T05:50:17.463Z,25.80
2022-08-13T05:52:49.402Z,29.73
2022-08-13T05:56:12.900Z,29.93
2022-08-13T05:58:12.167Z,25.27
2022-08-13T06:01:12.542Z,27.40
2022-08-13T06:04:15.763Z,29.70
2022-08-13T06:06:34.283Z,26.57
2022-08-13T06:09:09.416Z,29.10
2022-08-13T06:12:25.740Z,26.37
2022-08-13T06:14:39.203Z,25.70
2022-08-13T06:17:12.342Z,27.77
2022-08-13T06:19:45.245Z,28.30
2022-08-13T06:22:20.781Z,27.17
2022-08-13T06:24:53.833Z,26.17
2022-08-13T06:27:55.793Z,25.93
2022-08-13T06:30:12.895Z,24.67
2022-08-13T06:33:58.583Z,23.00
2022-08-13T06:35:44.652Z,22.33
2022-08-13T06:38:22.052Z,19.27
2022-08-13T06:40:51.144Z,18.87
2022-08-13T06:43:20.844Z,16.60
2022-08-13T06:45:50.754Z,15.63
2022-08-13T06:48:34.142Z,17.00
2022-08-13T06:51:07.400Z,14.37
2022-08-13T06:54:23.755Z,13.03
2022-08-13T06:56:35.914Z,12.27
2022-08-13T06:59:10.378Z,12.77
2022-08-13T07:02:08.285Z,12.20
2022-08-13T07:04:34.180Z,13.47
2022-08-13T07:07:08.667Z,13.97
2022-08-13T07:09:42.433Z,12.83
2022-08-13T07:12:14.515Z,12.83
2022-08-13T07:14:58.651Z,14.67
2022-08-13T07:17:31.583Z,13.73
2022-08-13T07:20:07.122Z,14.27
2022-08-13T07:24:49.043Z,15.23
2022-08-13T07:25:57.735Z,16.03
2022-08-13T07:28:26.340Z,14.07
2022-08-13T07:31:12.067Z,15.53
2022-08-13T07:33:47.337Z,16.07
2022-08-13T07:36:26.400Z,17.73
2022-08-13T07:38:56.225Z,15.93
2022-08-13T07:41:28.185Z,17.03
2022-08-13T07:44:02.550Z,15.77
2022-08-13T07:46:36.324Z,15.73
2022-08-13T07:49:10.495Z,15.60
2022-08-13T07:51:39.418Z,13.67
2022-08-13T07:54:15.281Z,14.23
2022-08-13T07:56:50.428Z,12.60
2022-08-13T07:59:33.392Z,13.53
2022-08-13T08:02:20.417Z,13.00
2022-08-13T08:04:54.551Z,12.93
2022-08-13T08:07:23.598Z,11.17
2022-08-13T08:09:59.460Z,11.20
2022-08-13T08:12:47.790Z,10.63
2022-08-13T08:16:01.397Z,8.83
2022-08-13T08:18:15.530Z,9.67
2022-08-13T08:24:02.084Z,8.57
2022-08-13T08:24:03.935Z,9.47
2022-08-13T08:26:34.344Z,8.77
2022-08-13T08:29:10.435Z,8.83
2022-08-13T08:31:57.345Z,7.67
2022-08-13T08:34:28.688Z,7.90
2022-08-13T08:36:58.446Z,7.83
2022-08-13T08:39:45.654Z,8.70
2022-08-13T08:43:10.774Z,8.20
2022-08-13T08:46:10.885Z,9.77
2022-08-13T08:48:26.956Z,10.27
2022-08-13T08:50:55.467Z,10.73
2022-08-13T08:54:05.699Z,11.47
2022-08-13T08:56:14.178Z,11.43
2022-08-13T08:58:44.785Z,11.73
2022-08-13T09:01:14.023Z,12.07
2022-08-13T09:03:57.571Z,11.63
2022-08-13T09:06:53.406Z,11.50
2022-08-13T09:09:19.493Z,10.90
2022-08-13T09:11:54.357Z,12.00
2022-08-13T09:14:28.376Z,10.90
2022-08-13T09:16:57.673Z,11.70
2022-08-13T09:19:46.136Z,11.47
2022-08-13T09:22:23.923Z,10.77
2022-08-13T09:24:57.826Z,11.20
2022-08-13T09:28:01.953Z,11.10
2022-08-13T09:30:23.097Z,12.10
2022-08-13T09:32:54.277Z,10.90
2022-08-13T09:35:22.537Z,11.43
2022-08-13T09:37:57.688Z,10.70
2022-08-13T09:40:39.857Z,12.37
2022-08-13T09:43:45.316Z,15.27
2022-08-13T09:46:13.957Z,11.63
2022-08-13T09:48:46.743Z,11.20
2022-08-13T09:51:54.993Z,10.60
2022-08-13T09:54:06.326Z,9.80
2022-08-13T09:56:37.856Z,9.57
2022-08-13T09:59:09.258Z,9.30
2022-08-13T10:01:55.747Z,9.83
2022-08-13T10:04:27.683Z,10.00
2022-08-13T10:07:03.377Z,9.07
2022-08-13T10:09:41.838Z,9.83
2022-08-13T10:12:24.367Z,9.50
2022-08-13T10:14:57.047Z,9.57
2022-08-13T10:17:42.818Z,9.70
2022-08-13T10:20:18.185Z,9.97
2022-08-13T10:22:48.874Z,8.87
2022-08-13T10:25:18.929Z,9.63
2022-08-13T10:27:49.798Z,9.27
2022-08-13T10:30:57.297Z,10.03
2022-08-13T10:33:17.470Z,14.23
2022-08-13T10:35:53.074Z,9.10
2022-08-13T10:38:29.870Z,9.53
2022-08-13T10:40:59.635Z,8.70
2022-08-13T10:43:46.056Z,9.70
2022-08-13T10:46:27.694Z,9.83
2022-08-13T10:49:00.017Z,10.23
2022-08-13T10:51:36.322Z,9.60
2022-08-13T10:54:21.710Z,9.53
2022-08-13T10:57:00.087Z,9.33
2022-08-13T10:59:28.420Z,9.87
2022-08-13T11:01:56.452Z,9.53
2022-08-13T11:04:30.815Z,9.70
2022-08-13T11:07:01.147Z,10.20
2022-08-13T11:09:37.635Z,10.57
2022-08-13T11:12:08.624Z,9.13
2022-08-13T11:14:38.957Z,9.73
2022-08-13T11:17:24.015Z,8.53
2022-08-13T11:20:06.858Z,9.10
2022-08-13T11:22:37.017Z,8.97
2022-08-13T11:25:53.886Z,8.93
2022-08-13T11:27:54.399Z,8.30
2022-08-13T11:30:34.881Z,10.27
2022-08-13T11:33:12.818Z,8.00
2022-08-13T11:35:47.748Z,8.87
2022-08-13T11:38:20.446Z,7.80
2022-08-13T11:40:53.151Z,8.60
2022-08-13T11:43:22.596Z,8.37
2022-08-13T11:45:51.000Z,8.57
2022-08-13T11:48:29.558Z,8.97
2022-08-13T11:51:06.358Z,9.47
2022-08-13T11:54:28.368Z,9.33
2022-08-13T11:56:23.013Z,9.27
2022-08-13T11:58:54.843Z,9.80
2022-08-13T12:01:24.890Z,9.87
2022-08-13T12:04:27.597Z,10.37
2022-08-13T12:06:47.658Z,9.63
2022-08-13T12:09:23.854Z,9.53
2022-08-13T12:12:11.183Z,9.20
2022-08-13T12:14:50.002Z,9.20
2022-08-13T12:17:48.716Z,9.63
2022-08-13T12:20:18.949Z,9.87
2022-08-13T12:22:51.737Z,9.00
2022-08-13T12:25:33.777Z,9.63
2022-08-13T12:28:21.060Z,10.10
2022-08-13T12:30:52.482Z,9.53
2022-08-13T12:33:22.244Z,9.90
2022-08-13T12:35:56.490Z,9.25
2022-08-13T12:38:30.186Z,9.98
2022-08-13T12:41:13.940Z,9.75
2022-08-13T12:44:59.977Z,9.50
2022-08-13T12:46:36.491Z,9.15
2022-08-13T12:49:11.589Z,9.82
2022-08-13T12:51:54.632Z,9.03
2022-08-13T12:54:40.052Z,8.88
2022-08-13T12:57:27.037Z,9.23
2022-08-13T13:00:05.825Z,9.45
2022-08-13T13:02:41.127Z,9.05
2022-08-13T13:05:18.194Z,10.60
2022-08-13T13:08:07.195Z,9.35
2022-08-13T13:10:42.383Z,9.93
2022-08-13T13:13:27.244Z,10.43
2022-08-13T13:16:29.381Z,11.27
2022-08-13T13:19:00.028Z,11.02
2022-08-13T13:21:34.821Z,10.70
2022-08-13T13:24:05.908Z,9.57
2022-08-13T13:26:36.193Z,9.80
2022-08-13T13:29:07.349Z,10.00
2022-08-13T13:32:45.583Z,9.90
2022-08-13T13:34:26.872Z,9.93
2022-08-13T13:36:58.565Z,10.83
2022-08-13T13:39:26.690Z,11.13
2022-08-13T13:41:56.143Z,10.90
2022-08-13T13:44:38.422Z,10.13
2022-08-13T13:47:09.611Z,11.33
2022-08-13T13:49:38.345Z,12.93
2022-08-13T13:52:07.996Z,10.97
2022-08-13T13:54:39.254Z,12.93
2022-08-13T13:57:08.846Z,13.07
2022-08-13T13:59:45.715Z,12.63
2022-08-13T14:02:17.956Z,12.40
2022-08-13T14:05:13.425Z,11.40
2022-08-13T14:07:48.949Z,12.27
2022-08-13T14:10:19.287Z,12.57
2022-08-13T14:13:06.264Z,12.83
2022-08-13T14:15:38.828Z,12.53
2022-08-13T14:18:26.776Z,12.73
2022-08-13T14:20:58.165Z,12.60
2022-08-13T14:23:39.288Z,13.33
2022-08-13T14:26:14.740Z,11.43
2022-08-13T14:28:50.363Z,12.97
2022-08-13T14:31:19.261Z,12.20
2022-08-13T14:33:56.996Z,11.80
2022-08-13T14:36:30.126Z,11.07
2022-08-13T14:39:00.003Z,11.97
2022-08-13T14:41:37.134Z,12.13
2022-08-13T14:44:07.399Z,11.90
2022-08-13T14:46:37.346Z,12.27
2022-08-13T14:49:06.191Z,13.70
2022-08-13T14:52:03.363Z,13.40
2022-08-13T14:54:28.791Z,11.93
2022-08-13T14:57:23.812Z,11.97
2022-08-13T14:59:52.819Z,12.37
2022-08-13T15:02:24.063Z,10.73
2022-08-13T15:04:59.331Z,13.40
2022-08-13T15:07:29.233Z,12.57
2022-08-13T15:09:59.984Z,12.83
2022-08-13T15:12:30.052Z,11.67
2022-08-13T15:15:02.220Z,12.07
2022-08-13T15:17:37.389Z,11.33
2022-08-13T15:20:08.483Z,11.83
2022-08-13T15:22:37.608Z,13.30
2022-08-13T15:25:09.752Z,12.73
2022-08-13T15:27:40.522Z,11.30
2022-08-13T15:30:13.368Z,10.80
2022-08-13T15:32:53.944Z,10.17
2022-08-13T15:35:31.813Z,11.43
2022-08-13T15:38:01.541Z,11.17
2022-08-13T15:40:33.082Z,10.80
2022-08-13T15:43:08.791Z,10.60
2022-08-13T15:45:42.728Z,11.50
2022-08-13T15:48:19.252Z,11.10
2022-08-13T15:50:55.325Z,10.00
2022-08-13T15:53:25.276Z,8.85
2022-08-13T15:55:56.721Z,8.03
2022-08-13T15:58:28.489Z,8.07
2022-08-13T16:01:21.044Z,7.80
2022-08-13T16:03:55.696Z,8.83
2022-08-13T16:06:29.873Z,11.60
2022-08-13T16:08:58.709Z,10.07
2022-08-13T16:11:44.402Z,8.80
2022-08-13T16:14:18.430Z,9.30
2022-08-13T16:16:52.335Z,8.80
2022-08-13T16:19:50.992Z,9.40
2022-08-13T16:22:11.970Z,9.87
2022-08-13T16:24:41.960Z,9.67
2022-08-13T16:27:24.431Z,10.40
2022-08-13T16:29:55.178Z,8.63
2022-08-13T16:32:41.705Z,8.50
2022-08-13T16:35:16.544Z,8.87
2022-08-13T16:37:55.091Z,8.47
2022-08-13T16:40:24.968Z,11.50
2022-08-13T16:43:10.118Z,8.93
2022-08-13T16:45:42.052Z,10.60
2022-08-13T16:48:14.912Z,8.97
2022-08-13T16:50:47.499Z,9.23
2022-08-13T16:53:23.789Z,9.13
2022-08-13T16:55:56.833Z,8.47
2022-08-13T16:58:26.529Z,9.73
2022-08-13T17:00:59.285Z,9.27
2022-08-13T17:04:00.504Z,10.00
2022-08-13T17:06:52.548Z,9.37
2022-08-13T17:09:24.359Z,10.23
2022-08-13T17:11:59.864Z,11.50
2022-08-13T17:14:41.113Z,9.83
2022-08-13T17:17:14.219Z,9.13
2022-08-13T17:19:58.665Z,9.90
2022-08-13T17:22:29.974Z,9.93
2022-08-13T17:24:59.666Z,9.33
2022-08-13T17:27:28.666Z,9.43
2022-08-13T17:30:04.910Z,10.33
2022-08-13T17:32:37.468Z,10.20
2022-08-13T17:35:15.003Z,8.97
2022-08-13T17:37:55.562Z,9.20
2022-08-13T17:40:33.412Z,9.43
2022-08-13T17:44:02.946Z,10.30
2022-08-13T17:45:57.429Z,10.93
2022-08-13T17:48:38.691Z,10.50
2022-08-13T17:51:23.033Z,10.63
2022-08-13T17:53:53.060Z,10.27
2022-08-13T17:56:22.016Z,11.03
2022-08-13T17:58:50.690Z,10.53
2022-08-13T18:01:31.113Z,10.83
2022-08-13T18:04:09.641Z,11.03
2022-08-13T18:06:43.733Z,11.53
2022-08-13T18:09:21.710Z,10.97
2022-08-13T18:12:09.433Z,10.97
2022-08-13T18:14:50.041Z,10.73
2022-08-13T18:17:29.225Z,11.77
2022-08-13T18:20:09.333Z,11.50
2022-08-13T18:22:41.871Z,10.80
2022-08-13T18:25:14.600Z,11.67
2022-08-13T18:28:16.735Z,11.60
2022-08-13T18:30:37.105Z,11.90
2022-08-13T18:34:04.127Z,11.70
2022-08-13T18:36:19.073Z,11.33
2022-08-13T18:38:56.078Z,11.73
2022-08-13T18:41:24.754Z,13.23
2022-08-13T18:43:54.166Z,12.97
2022-08-13T18:46:22.713Z,12.57
2022-08-13T18:48:58.408Z,12.37
2022-08-13T18:51:40.055Z,12.23
2022-08-13T18:54:43.802Z,12.53
2022-08-13T18:57:01.353Z,12.50
2022-08-13T18:59:30.219Z,12.67
2022-08-13T19:02:10.124Z,11.63
2022-08-13T19:04:38.414Z,12.60
2022-08-13T19:07:38.110Z,12.17
2022-08-13T19:10:05.404Z,11.50
2022-08-13T19:12:33.440Z,11.70
2022-08-13T19:15:01.521Z,11.70
2022-08-13T19:17:33.700Z,11.50
2022-08-13T19:20:02.164Z,11.33
2022-08-13T19:22:31.913Z,11.63
2022-08-13T19:25:00.308Z,11.10
2022-08-13T19:27:54.205Z,11.27
2022-08-13T19:30:20.293Z,11.70
2022-08-13T19:32:49.830Z,11.70
2022-08-13T19:35:19.633Z,11.77
2022-08-13T19:37:54.754Z,11.63
2022-08-13T19:40:34.550Z,10.63
2022-08-13T19:43:06.215Z,10.20
2022-08-13T19:45:51.010Z,11.40
2022-08-13T19:48:38.084Z,10.37
2022-08-13T19:51:23.043Z,10.13
2022-08-13T19:53:56.477Z,10.97
2022-08-13T19:56:34.132Z,10.70
2022-08-13T19:59:06.081Z,11.23
2022-08-13T20:01:35.666Z,11.47
2022-08-13T20:04:13.641Z,11.63
2022-08-13T20:06:43.867Z,11.57
2022-08-13T20:09:12.202Z,11.87
2022-08-13T20:11:45.671Z,11.00
2022-08-13T20:14:18.911Z,11.40
2022-08-13T20:16:50.689Z,12.20
2022-08-13T20:19:20.177Z,11.30
2022-08-13T20:21:51.042Z,11.30
2022-08-13T20:24:21.531Z,11.80
2022-08-13T20:27:17.782Z,12.53
2022-08-13T20:29:59.567Z,12.60
2022-08-13T20:32:32.372Z,12.17
2022-08-13T20:35:03.404Z,12.87
2022-08-13T20:37:48.335Z,12.03
2022-08-13T20:40:22.479Z,13.93
2022-08-13T20:42:56.075Z,11.57
2022-08-13T20:45:43.459Z,12.17
2022-08-13T20:48:25.365Z,12.97
2022-08-13T20:51:00.042Z,14.30
2022-08-13T20:53:32.985Z,12.60
2022-08-13T20:56:01.854Z,12.83
2022-08-13T21:00:43.155Z,12.97
2022-08-13T21:01:19.482Z,12.57
2022-08-13T21:03:49.534Z,12.70
2022-08-13T21:06:20.181Z,11.47
2022-08-13T21:08:53.686Z,11.70
2022-08-13T21:11:23.125Z,11.33
2022-08-13T21:13:51.437Z,11.73
2022-08-13T21:16:34.305Z,11.63
2022-08-13T21:19:36.580Z,11.67
2022-08-13T21:21:55.758Z,11.17
2022-08-13T21:24:28.637Z,12.00
2022-08-13T21:27:01.468Z,11.53
2022-08-13T21:29:43.399Z,11.20
2022-08-13T21:32:19.099Z,11.57
2022-08-13T21:34:49.913Z,11.17
2022-08-13T21:37:27.374Z,11.17
2022-08-13T21:39:56.962Z,10.53
2022-08-13T21:42:34.716Z,11.00
2022-08-13T21:45:03.925Z,11.37
2022-08-13T21:47:36.624Z,10.70
2022-08-13T21:50:10.687Z,10.70
2022-08-13T21:52:52.894Z,11.73
2022-08-13T21:55:23.525Z,12.03
2022-08-13T21:57:53.680Z,12.30
2022-08-13T22:00:28.247Z,11.73
2022-08-13T22:02:59.735Z,11.67
2022-08-13T22:05:59.632Z,12.27
2022-08-13T22:08:16.268Z,10.93
2022-08-13T22:10:44.475Z,13.83
2022-08-13T22:13:17.586Z,12.47
2022-08-13T22:15:50.601Z,12.80
2022-08-13T22:18:23.859Z,13.13
2022-08-13T22:20:56.915Z,11.77
2022-08-13T22:23:26.522Z,14.30
2022-08-13T22:26:00.385Z,11.33
2022-08-13T22:28:45.891Z,12.43
2022-08-13T22:31:15.937Z,11.87
2022-08-13T22:33:49.650Z,11.70
2022-08-13T22:36:31.610Z,11.30
2022-08-13T22:39:01.426Z,11.73
2022-08-13T22:41:29.479Z,11.70
2022-08-13T22:43:59.403Z,11.20
2022-08-13T22:46:27.605Z,11.37
2022-08-13T22:48:58.361Z,12.50
2022-08-13T22:51:26.874Z,12.73
2022-08-13T22:53:59.002Z,11.83
2022-08-13T22:56:35.954Z,11.03
2022-08-13T22:59:10.288Z,11.17
2022-08-13T23:01:39.553Z,11.50
2022-08-13T23:04:22.968Z,11.83
2022-08-13T23:06:52.583Z,11.63
2022-08-13T23:09:23.100Z,12.30
2022-08-13T23:11:57.649Z,12.00
2022-08-13T23:14:26.049Z,11.70
2022-08-13T23:16:55.369Z,11.90
2022-08-13T23:19:24.921Z,12.20
2022-08-13T23:21:54.754Z,12.13
2022-08-13T23:24:24.882Z,12.60
2022-08-13T23:26:53.581Z,11.37
2022-08-13T23:29:22.548Z,11.30
2022-08-13T23:31:53.351Z,11.70
2022-08-13T23:34:27.545Z,11.60
2022-08-13T23:36:56.153Z,11.97
2022-08-13T23:39:26.783Z,12.07
2022-08-13T23:41:57.042Z,11.50
2022-08-13T23:44:39.450Z,12.23
2022-08-13T23:47:13.351Z,11.60
2022-08-13T23:49:46.201Z,12.67
2022-08-13T23:52:20.674Z,12.03
2022-08-13T23:54:52.378Z,12.67
2022-08-13T23:57:27.437Z,13.10
2022-08-13T23:59:56.915Z,12.63
